Aitkin, Minnesota
Current Conditions -  °F | °C
As of 3:33 PM on Saturday 22 Nov 2014 (Local Time) from KAIT Reporting Station
Haze Haze  
Wind Chill: 30°   Ceiling: Unl
Heat Index: 37°   Visibility: 4mi
Dew Point: 30°   Wind: 10mph
Humidity: 75%   Direction: 150°SSE
Pressure: 29.58"   Gusts: NA
Location:  46.53°N, 93.71°W
Report Text: KAIT 222133Z AUTO 15009KT 4SM HZ CLR 03/M01 A2958 RMK AO2
Loading
Personal Weather Stations






























Interactive Weather Map New forecast layout! Learn more

10-Day Weather Forecast

Advertisements
Track Severe Weather on mobile